Time;durP1;ratioP1;P1;durP2;ratioP2;P2;SDS_P1;SDS_P2;PMS_P1;PMS_P2;Temp;Humidity;BMP_temperature;BMP_pressure;BME280_temperature;BME280_humidity;BME280_pressure;Samples;Min_cycle;Max_cycle;Signal;HPM_P1;HPM_P2
2022/05/02 00:00:09;;;;;;;;;43.75;36.25;;;;;15.16;46.75;101359.63;5021125;28;46058;-79
2022/05/02 00:02:35;;;;;;;;;40.50;36.00;;;;;15.10;46.52;101356.41;5020160;28;45860;-80
2022/05/02 00:05:01;;;;;;;;;40.75;34.00;;;;;15.07;46.63;101347.69;5007726;28;45509;-79
2022/05/02 00:07:27;;;;;;;;;41.75;35.50;;;;;15.13;46.76;101355.34;5004173;28;45502;-80
2022/05/02 00:09:52;;;;;;;;;38.25;33.50;;;;;15.02;46.67;101336.41;5003066;28;45837;-79
2022/05/02 00:12:18;;;;;;;;;37.75;33.50;;;;;14.88;46.92;101310.47;5006194;28;45401;-79
2022/05/02 00:14:44;;;;;;;;;39.25;33.25;;;;;15.01;47.04;101330.19;5001557;28;45422;-79
2022/05/02 00:17:09;;;;;;;;;37.75;33.00;;;;;14.94;47.17;101326.19;5005155;28;45447;-81
2022/05/02 00:19:35;;;;;;;;;41.50;33.25;;;;;15.09;47.17;101348.44;5001561;28;45555;-80
2022/05/02 00:22:00;;;;;;;;;35.75;32.25;;;;;15.08;47.22;101350.28;5005372;28;45608;-79
2022/05/02 00:24:26;;;;;;;;;40.00;35.00;;;;;14.83;47.40;101302.75;5004041;28;45510;-81
2022/05/02 00:26:51;;;;;;;;;37.00;34.00;;;;;14.90;47.25;101321.97;5001142;28;45579;-79
2022/05/02 00:29:17;;;;;;;;;41.25;36.00;;;;;14.93;47.40;101319.09;5002950;28;45952;-79
2022/05/02 00:31:42;;;;;;;;;42.00;36.75;;;;;14.90;47.25;101325.50;5000560;28;45291;-79
2022/05/02 00:34:07;;;;;;;;;35.50;33.00;;;;;14.90;47.33;101317.47;5000786;28;45602;-79
2022/05/02 00:36:33;;;;;;;;;42.25;34.25;;;;;14.94;47.36;101328.00;4998274;28;45425;-79
2022/05/02 00:38:58;;;;;;;;;45.00;36.75;;;;;14.83;47.39;101315.28;4983783;28;47178;-80
2022/05/02 00:41:24;;;;;;;;;44.25;36.25;;;;;14.76;47.56;101306.78;4995478;28;45428;-79
2022/05/02 00:43:49;;;;;;;;;40.50;34.00;;;;;14.75;47.56;101301.53;4994289;28;45425;-79
2022/05/02 00:46:25;;;;;;;;;42.00;34.00;;;;;14.89;47.34;101331.84;4992679;28;45568;-80
2022/05/02 00:48:52;;;;;;;;;43.25;36.00;;;;;14.72;47.39;101299.91;4990708;28;45748;-80
2022/05/02 00:51:18;;;;;;;;;46.00;36.00;;;;;14.88;47.29;101322.06;4992676;28;45300;-80
2022/05/02 00:53:48;;;;;;;;;39.50;34.25;;;;;14.88;47.45;101318.53;4995930;28;45348;-79
2022/05/02 00:56:18;;;;;;;;;39.00;33.25;;;;;14.84;47.83;101308.94;4992391;28;45432;-79
2022/05/02 00:58:44;;;;;;;;;40.00;35.00;;;;;14.76;47.71;101298.72;4993087;28;45459;-79
2022/05/02 01:01:09;;;;;;;;;41.50;33.50;;;;;14.69;47.73;101290.22;4991876;28;45437;-79
2022/05/02 01:03:35;;;;;;;;;41.50;32.25;;;;;14.80;48.06;101297.59;4992792;28;46375;-78
2022/05/02 01:08:46;;;;;;;;;37.00;32.75;;;;;14.64;47.85;101296.84;4993380;28;45735;-80
2022/05/02 01:11:11;;;;;;;;;36.00;31.75;;;;;14.66;48.20;101301.16;4996367;28;48473;-78
2022/05/02 01:13:40;;;;;;;;;31.50;30.25;;;;;14.62;48.16;101288.03;4993717;28;45567;-80
2022/05/02 01:16:13;;;;;;;;;33.00;30.00;;;;;14.55;48.46;101297.44;4991779;28;45502;-78
2022/05/02 01:18:38;;;;;;;;;32.75;31.25;;;;;14.47;48.49;101280.00;4994157;28;46103;-79
2022/05/02 01:21:12;;;;;;;;;34.50;31.00;;;;;14.46;48.62;101280.13;4993441;28;45527;-78
2022/05/02 01:23:37;;;;;;;;;35.00;32.50;;;;;14.48;48.53;101289.78;4995001;28;45302;-80
2022/05/02 01:26:03;;;;;;;;;29.75;28.50;;;;;14.44;48.79;101287.38;4995591;28;45407;-78
2022/05/02 01:28:28;;;;;;;;;25.75;24.50;;;;;14.14;48.77;101229.47;4994312;28;54773;-80
2022/05/02 01:30:55;;;;;;;;;28.00;27.25;;;;;14.47;48.76;101289.84;4992968;28;45564;-79
2022/05/02 01:33:20;;;;;;;;;28.75;27.00;;;;;14.30;48.87;101271.31;4990004;28;45398;-80
2022/05/02 01:35:45;;;;;;;;;27.50;25.75;;;;;14.23;48.98;101257.44;4991335;28;45528;-79
2022/05/02 01:38:12;;;;;;;;;28.50;25.50;;;;;14.36;48.96;101285.19;4993473;28;46434;-79
2022/05/02 01:40:38;;;;;;;;;24.50;23.00;;;;;14.34;49.11;101287.09;4991293;28;45506;-80
2022/05/02 01:43:03;;;;;;;;;27.00;25.00;;;;;14.24;49.12;101262.72;4992574;28;45959;-80
2022/05/02 01:45:29;;;;;;;;;26.50;22.75;;;;;14.32;49.10;101289.00;4993795;28;45490;-80
2022/05/02 01:47:54;;;;;;;;;23.00;22.50;;;;;14.26;49.02;101281.34;4992619;28;46301;-80
2022/05/02 01:50:19;;;;;;;;;27.00;23.00;;;;;14.28;49.58;101282.97;4992698;28;48934;-80
2022/05/02 01:52:45;;;;;;;;;28.00;24.25;;;;;14.18;49.26;101262.25;4996385;28;45594;-79
2022/05/02 01:55:10;;;;;;;;;25.75;23.00;;;;;14.23;49.38;101278.88;4991746;28;45582;-80
2022/05/02 01:57:35;;;;;;;;;24.00;23.00;;;;;14.18;49.23;101276.47;4991617;28;49870;-79
2022/05/02 02:00:01;;;;;;;;;23.75;22.25;;;;;14.24;49.25;101291.31;4990606;28;45535;-80
2022/05/02 02:02:26;;;;;;;;;19.00;19.00;;;;;13.99;49.29;101254.50;4992618;28;45389;-79
2022/05/02 02:07:35;;;;;;;;;23.50;23.00;;;;;14.17;49.38;101281.97;4989219;28;46124;-78
2022/05/02 02:10:01;;;;;;;;;19.25;19.25;;;;;13.99;49.56;101254.50;4989561;28;47404;-79
2022/05/02 02:12:26;;;;;;;;;23.00;19.25;;;;;14.18;49.57;101286.34;4991471;28;45862;-80
2022/05/02 02:14:51;;;;;;;;;23.75;21.75;;;;;14.19;49.19;101286.25;4992928;28;45479;-79
2022/05/02 02:17:17;;;;;;;;;24.25;22.25;;;;;14.20;49.34;101284.44;4995066;28;45559;-78
2022/05/02 02:19:42;;;;;;;;;24.00;20.50;;;;;14.17;49.10;101281.97;4994314;28;45449;-79
2022/05/02 02:22:17;;;;;;;;;18.50;17.50;;;;;13.96;49.29;101254.69;4992138;28;45282;-79
2022/05/02 02:24:44;;;;;;;;;25.50;21.25;;;;;14.14;49.30;101295.50;4993944;28;45314;-80
2022/05/02 02:27:09;;;;;;;;;25.50;23.25;;;;;13.99;49.16;101273.22;4992572;28;46508;-80
2022/05/02 02:29:35;;;;;;;;;19.25;19.25;;;;;13.93;49.13;101258.44;4992481;28;45771;-79
2022/05/02 02:32:00;;;;;;;;;24.00;23.75;;;;;14.07;49.17;101279.00;4991317;28;45468;-80
2022/05/02 02:34:25;;;;;;;;;24.00;18.50;;;;;13.89;49.40;101251.53;4991014;28;45306;-79
2022/05/02 02:36:51;;;;;;;;;21.25;21.25;;;;;13.90;49.49;101269.31;4990587;28;45463;-79
2022/05/02 02:39:16;;;;;;;;;22.00;21.00;;;;;13.91;49.60;101270.19;4993665;28;48807;-80
2022/05/02 02:41:41;;;;;;;;;25.00;25.00;;;;;13.89;49.76;101272.09;4990780;28;45593;-79
2022/05/02 02:44:07;;;;;;;;;26.75;23.25;;;;;13.88;49.72;101267.69;4993532;28;50107;-79
2022/05/02 02:46:32;;;;;;;;;21.00;21.00;;;;;13.75;49.66;101260.41;4989918;28;53012;-78
2022/05/02 02:48:57;;;;;;;;;21.00;20.50;;;;;13.72;49.87;101249.91;4992886;28;51527;-79
2022/05/02 02:51:22;;;;;;;;;22.50;20.75;;;;;13.70;49.60;101243.78;4993246;28;49175;-79
2022/05/02 02:53:48;;;;;;;;;25.00;22.50;;;;;13.80;49.74;101265.47;4993622;28;45280;-80
2022/05/02 02:56:14;;;;;;;;;26.75;25.75;;;;;13.75;50.03;101271.09;4991138;28;45507;-79
2022/05/02 02:58:39;;;;;;;;;26.25;26.00;;;;;13.62;49.85;101238.03;4992429;28;45321;-78
2022/05/02 03:01:05;;;;;;;;;24.50;21.00;;;;;13.72;49.74;101259.75;4992506;28;45536;-79
2022/05/02 03:03:31;;;;;;;;;24.75;23.00;;;;;13.52;49.94;101224.38;4993935;28;45537;-80
2022/05/02 03:06:02;;;;;;;;;23.00;21.50;;;;;13.53;49.96;101228.75;4991554;28;45550;-79
2022/05/02 03:08:31;;;;;;;;;26.75;25.00;;;;;13.70;49.87;101256.28;4990856;28;45570;-80
2022/05/02 03:10:57;;;;;;;;;25.00;24.50;;;;;13.72;49.74;101254.38;4992659;28;46146;-79
2022/05/02 03:13:23;;;;;;;;;21.00;20.00;;;;;13.60;49.73;101240.78;4990923;28;45414;-80
2022/05/02 03:15:49;;;;;;;;;27.25;25.25;;;;;13.66;50.10;101252.94;4993124;28;45535;-79
2022/05/02 03:18:14;;;;;;;;;25.75;25.00;;;;;13.67;49.99;101245.78;4992038;28;45559;-80
2022/05/02 03:20:40;;;;;;;;;28.00;25.00;;;;;13.62;50.18;101246.06;4994208;28;45332;-80
2022/05/02 03:23:05;;;;;;;;;25.75;23.75;;;;;13.48;50.49;101224.63;4991254;28;51328;-80
2022/05/02 03:25:31;;;;;;;;;30.75;26.50;;;;;13.59;50.09;101241.75;4992210;28;46359;-80
2022/05/02 03:27:56;;;;;;;;;27.00;25.00;;;;;13.40;50.18;101217.09;4992034;28;45622;-80
2022/05/02 03:30:22;;;;;;;;;27.50;25.50;;;;;13.48;50.36;101233.53;4990881;28;45492;-80
2022/05/02 03:32:47;;;;;;;;;29.50;29.50;;;;;13.46;50.31;101230.06;4989984;28;45483;-80
2022/05/02 03:35:13;;;;;;;;;25.00;23.75;;;;;13.55;50.09;101239.38;4992267;28;46243;-80
2022/05/02 03:37:38;;;;;;;;;27.00;25.00;;;;;13.56;50.29;101243.75;4993426;28;45522;-80
2022/05/02 03:40:05;;;;;;;;;29.00;26.75;;;;;13.52;50.23;101234.22;4992554;28;45468;-80
2022/05/02 03:42:30;;;;;;;;;27.50;27.00;;;;;13.54;50.21;101240.31;4989517;28;45558;-80
2022/05/02 03:44:55;;;;;;;;;28.25;24.25;;;;;13.52;50.22;101235.06;4990614;28;57741;-80
2022/05/02 03:47:21;;;;;;;;;29.00;25.75;;;;;13.51;50.17;101244.03;4990599;28;48556;-80
2022/05/02 03:49:46;;;;;;;;;29.75;28.00;;;;;13.50;50.42;101239.66;4988642;28;45317;-80
2022/05/02 03:52:12;;;;;;;;;28.25;26.50;;;;;13.34;49.99;101212.09;4989530;28;45530;-80
2022/05/02 03:54:37;;;;;;;;;24.00;23.00;;;;;13.48;49.93;101232.66;4992130;28;45940;-80
2022/05/02 03:57:03;;;;;;;;;32.25;28.00;;;;;13.46;50.05;101231.91;4988084;28;45806;-80
2022/05/02 03:59:28;;;;;;;;;24.25;24.25;;;;;13.31;50.27;101209.63;4990829;28;45395;-80
2022/05/02 04:01:53;;;;;;;;;28.25;25.00;;;;;13.28;50.43;101213.34;4994361;28;45714;-80
2022/05/02 04:04:19;;;;;;;;;31.25;26.00;;;;;13.39;50.29;101234.06;4993420;28;45283;-79
2022/05/02 04:06:44;;;;;;;;;27.25;24.00;;;;;13.37;50.43;101231.50;4997097;28;45243;-80
2022/05/02 04:09:09;;;;;;;;;28.75;26.00;;;;;13.37;50.47;101233.28;4997637;28;45389;-80
2022/05/02 04:11:35;;;;;;;;;26.00;25.00;;;;;13.16;50.45;101193.50;4996551;28;46474;-80
2022/05/02 04:14:00;;;;;;;;;27.00;21.75;;;;;13.15;50.39;101201.59;4997233;28;50870;-80
2022/05/02 04:16:25;;;;;;;;;35.50;31.75;;;;;13.25;50.32;101213.47;4997760;28;45337;-80
2022/05/02 04:18:51;;;;;;;;;30.75;30.00;;;;;13.34;50.25;101229.00;4997595;28;45302;-80
2022/05/02 04:21:16;;;;;;;;;31.00;27.00;;;;;13.25;50.25;101209.94;4996424;28;45478;-80
2022/05/02 04:23:41;;;;;;;;;29.00;28.25;;;;;13.33;50.32;101234.44;4997508;28;45345;-80
2022/05/02 04:26:06;;;;;;;;;27.50;27.00;;;;;13.24;50.65;101229.63;4997621;28;45662;-80
2022/05/02 04:28:34;;;;;;;;;30.50;25.75;;;;;13.03;50.64;101202.34;4997288;28;45373;-80
2022/05/02 04:30:59;;;;;;;;;29.00;26.00;;;;;13.07;50.75;101212.75;4997566;28;45326;-80
2022/05/02 04:33:24;;;;;;;;;26.50;24.75;;;;;12.96;50.96;101204.50;4996996;28;50333;-80
2022/05/02 04:35:50;;;;;;;;;30.75;27.75;;;;;13.23;50.87;101236.78;4997032;28;45373;-80
2022/05/02 04:38:15;;;;;;;;;30.75;27.25;;;;;13.05;50.69;101198.63;4996939;28;45409;-80
2022/05/02 04:40:40;;;;;;;;;28.25;28.25;;;;;13.04;50.69;101207.59;4995375;28;45819;-80
2022/05/02 04:43:06;;;;;;;;;25.50;25.50;;;;;13.00;50.83;101201.56;4995324;28;45535;-80
2022/05/02 04:45:31;;;;;;;;;28.25;26.25;;;;;13.19;50.69;101238.75;4996090;28;45408;-80
2022/05/02 04:47:57;;;;;;;;;28.00;26.50;;;;;13.17;50.94;101231.78;4995873;28;45515;-80
2022/05/02 04:50:23;;;;;;;;;23.00;22.00;;;;;13.02;50.88;101205.97;4996165;28;45456;-80
2022/05/02 04:52:49;;;;;;;;;25.75;22.00;;;;;13.20;51.05;101236.94;4996529;28;46049;-80
2022/05/02 04:55:14;;;;;;;;;30.00;30.00;;;;;13.18;51.01;101245.06;4995643;28;45387;-80
2022/05/02 04:57:40;;;;;;;;;31.75;28.25;;;;;13.18;51.04;101233.50;4995494;28;45536;-80
2022/05/02 05:00:07;;;;;;;;;29.00;26.25;;;;;13.15;50.96;101229.19;4996135;28;45492;-80
2022/05/02 05:02:33;;;;;;;;;29.75;27.75;;;;;13.02;50.66;101209.50;4996108;28;47444;-80
2022/05/02 05:04:58;;;;;;;;;29.75;27.50;;;;;13.17;51.08;101231.78;4994267;28;45327;-80
2022/05/02 05:07:24;;;;;;;;;29.75;29.50;;;;;13.04;51.05;101212.09;4995995;28;45432;-80
2022/05/02 05:09:49;;;;;;;;;26.25;24.50;;;;;13.20;50.92;101234.28;4995182;28;45397;-80
2022/05/02 05:12:32;;;;;;;;;33.00;30.00;;;;;13.14;51.28;101238.19;4995376;28;47379;-80
2022/05/02 05:18:41;;;;;;;;;30.75;30.75;;;;;13.05;51.21;101236.03;4984005;28;45575;-80
2022/05/02 05:21:24;;;;;;;;;28.00;26.75;;;;;12.92;51.67;101230.56;4982745;28;45384;-80
2022/05/02 05:24:08;;;;;;;;;30.50;27.25;;;;;13.00;52.00;101240.78;4979987;28;45430;-80
2022/05/02 05:26:56;;;;;;;;;31.25;30.75;;;;;12.96;51.65;101217.84;4996453;28;45369;-80
2022/05/02 05:30:01;;;;;;;;;30.00;28.00;;;;;12.93;51.68;101218.91;4993165;28;45318;-80
2022/05/02 05:32:37;;;;;;;;;34.00;30.25;;;;;13.06;51.77;101237.78;4993268;28;45684;-80
2022/05/02 05:35:07;;;;;;;;;34.25;32.00;;;;;13.07;51.84;101242.16;4995011;28;46315;-80
2022/05/02 05:37:41;;;;;;;;;32.75;30.50;;;;;13.06;51.64;101234.22;4995715;28;45278;-80
2022/05/02 05:40:15;;;;;;;;;30.00;27.75;;;;;13.14;51.47;101251.53;4996385;28;45396;-80
2022/05/02 05:42:52;;;;;;;;;28.00;28.00;;;;;13.14;51.90;101253.34;4996321;28;45333;-80
2022/05/02 05:45:41;;;;;;;;;34.75;31.50;;;;;12.92;52.04;101203.84;4995753;28;46188;-80
2022/05/02 05:48:17;;;;;;;;;31.00;29.25;;;;;13.17;51.93;101242.47;4982591;28;45474;-80
2022/05/02 05:50:53;;;;;;;;;33.25;31.25;;;;;13.04;51.83;101223.63;4996204;28;45507;-80
2022/05/02 05:53:32;;;;;;;;;33.75;32.50;;;;;13.24;51.90;101245.66;4992558;28;45389;-80
2022/05/02 05:56:07;;;;;;;;;30.75;30.25;;;;;13.23;51.89;101236.78;4996132;28;45447;-80
2022/05/02 05:59:08;;;;;;;;;36.50;33.50;;;;;13.21;51.88;101239.53;4995964;28;45562;-80
2022/05/02 06:02:00;;;;;;;;;39.75;33.00;;;;;13.26;51.96;101243.75;4989830;28;45554;-80
2022/05/02 06:04:30;;;;;;;;;39.75;34.00;;;;;13.30;51.86;101234.63;4992891;28;45432;-79
2022/05/02 06:06:56;;;;;;;;;35.50;32.00;;;;;13.22;51.59;101227.88;4988468;28;46107;-79
2022/05/02 06:09:24;;;;;;;;;34.50;30.75;;;;;13.21;51.50;101222.66;4990102;28;45411;-79
2022/05/02 06:11:51;;;;;;;;;40.50;33.25;;;;;13.34;51.74;101241.50;4994724;28;45505;-79
2022/05/02 06:14:21;;;;;;;;;41.75;34.50;;;;;13.32;51.40;101238.06;4986739;28;45460;-79
2022/05/02 06:19:33;;;;;;;;;38.75;33.25;;;;;13.31;51.39;101223.84;4995121;28;45706;-79
2022/05/02 06:22:01;;;;;;;;;37.75;33.50;;;;;13.39;51.42;101244.75;4994726;28;45357;-80
2022/05/02 06:24:30;;;;;;;;;42.00;33.25;;;;;13.46;51.48;101248.78;4995109;28;45548;-79
2022/05/02 06:26:58;;;;;;;;;40.00;33.50;;;;;13.47;51.55;101247.84;4994804;28;45507;-79
2022/05/02 06:29:24;;;;;;;;;42.00;34.75;;;;;13.43;51.53;101249.84;5005393;28;45915;-79
2022/05/02 06:31:53;;;;;;;;;41.25;36.25;;;;;13.47;51.48;101244.31;4984073;28;45436;-80
2022/05/02 06:34:23;;;;;;;;;33.00;31.75;;;;;13.43;51.71;101241.81;4991120;28;45400;-80
2022/05/02 06:36:56;;;;;;;;;41.50;36.25;;;;;13.49;51.61;101245.94;4993682;28;46076;-79
2022/05/02 06:40:06;;;;;;;;;37.25;33.75;;;;;13.52;51.68;101243.09;4991612;28;45688;-80
2022/05/02 06:42:42;;;;;;;;;43.25;33.25;;;;;13.58;51.61;101241.84;4989096;28;45313;-80
2022/05/02 06:45:16;;;;;;;;;40.25;34.75;;;;;13.59;51.45;101241.75;5008639;28;45559;-81
2022/05/02 06:47:45;;;;;;;;;42.75;36.50;;;;;13.63;51.42;101245.94;4992354;28;46534;-81
2022/05/02 06:50:16;;;;;;;;;44.50;34.00;;;;;13.66;51.15;101254.75;4979830;28;45457;-81
2022/05/02 06:52:53;;;;;;;;;36.75;33.25;;;;;13.69;51.26;101251.91;4984080;28;45509;-80
2022/05/02 06:55:18;;;;;;;;;38.75;33.50;;;;;13.72;51.17;101255.25;4991544;28;49863;-80
2022/05/02 06:58:08;;;;;;;;;45.50;38.00;;;;;13.76;51.41;101256.78;4993791;28;46031;-81
2022/05/02 07:00:43;;;;;;;;;42.75;36.25;;;;;13.78;51.27;101259.34;4993537;28;45427;-80
2022/05/02 07:03:31;;;;;;;;;39.25;33.75;;;;;13.67;51.26;101235.09;4989268;28;45432;-81
2022/05/02 07:06:21;;;;;;;;;42.00;35.25;;;;;13.86;51.03;101262.44;4992496;28;45483;-81
2022/05/02 07:08:59;;;;;;;;;45.00;35.75;;;;;13.76;51.06;101246.09;4994237;28;47818;-81
2022/05/02 07:11:51;;;;;;;;;43.75;36.50;;;;;13.84;51.18;101257.16;5009813;28;45639;-81
2022/05/02 07:14:25;;;;;;;;;37.00;33.50;;;;;13.69;51.27;101226.00;4991286;28;45456;-81
2022/05/02 07:16:56;;;;;;;;;47.00;37.00;;;;;13.93;51.29;101249.53;4993782;28;45607;-80
2022/05/02 07:19:55;;;;;;;;;43.25;36.25;;;;;13.64;51.08;101194.19;4993768;28;45358;-81
2022/05/02 07:22:34;;;;;;;;;46.50;36.75;;;;;13.99;51.00;101238.44;4993219;28;45423;-81
2022/05/02 07:25:08;;;;;;;;;44.25;36.00;;;;;13.97;50.63;101233.16;4994670;28;45399;-80
2022/05/02 07:27:53;;;;;;;;;39.00;34.00;;;;;14.06;50.52;101248.66;4993395;28;45465;-81
2022/05/02 07:30:23;;;;;;;;;36.50;34.00;;;;;13.99;50.59;101230.41;4994525;28;46113;-81
2022/05/02 07:32:53;;;;;;;;;42.50;35.75;;;;;14.03;50.15;101238.16;4988436;28;45392;-81
2022/05/02 07:35:21;;;;;;;;;38.75;34.00;;;;;14.15;49.97;101244.56;4993409;28;45524;-80
2022/05/02 07:37:47;;;;;;;;;41.00;36.00;;;;;13.93;50.28;101214.75;4994421;28;45536;-80
2022/05/02 07:40:16;;;;;;;;;44.00;37.50;;;;;14.23;50.18;101269.03;4995932;28;45409;-80
2022/05/02 07:42:44;;;;;;;;;42.50;35.75;;;;;14.25;50.18;101266.25;4993742;28;45477;-80
2022/05/02 07:45:10;;;;;;;;;41.75;34.25;;;;;14.28;50.03;101253.50;4985085;28;45478;-80
2022/05/02 07:47:37;;;;;;;;;35.00;31.75;;;;;14.23;50.95;101246.75;4997411;28;45428;-80
2022/05/02 07:50:04;;;;;;;;;46.00;38.00;;;;;14.15;50.17;101224.97;4998221;28;47048;-80
2022/05/02 07:52:30;;;;;;;;;43.00;37.50;;;;;14.26;50.41;101243.84;4997598;28;45516;-80
2022/05/02 07:54:58;;;;;;;;;38.00;33.50;;;;;14.30;49.91;101242.72;4997549;28;45320;-80
2022/05/02 07:57:24;;;;;;;;;40.25;34.00;;;;;14.48;50.02;101264.81;4997789;28;45550;-80
2022/05/02 07:59:55;;;;;;;;;37.75;33.50;;;;;14.25;49.79;101228.75;4997823;28;46134;-80
2022/05/02 08:02:22;;;;;;;;;47.75;38.75;;;;;14.36;49.78;101254.84;4997708;28;45294;-81
2022/05/02 08:04:48;;;;;;;;;45.25;37.25;;;;;14.44;49.71;101263.28;4997505;28;45366;-81
2022/05/02 08:07:34;;;;;;;;;48.50;40.00;;;;;14.30;49.68;101229.31;4997402;28;45487;-80
2022/05/02 08:10:39;;;;;;;;;47.00;37.50;;;;;14.48;49.89;101254.09;5012610;28;47491;-81
2022/05/02 08:13:20;;;;;;;;;48.50;39.50;;;;;14.65;49.32;101266.44;4986561;28;45833;-80
2022/05/02 08:15:54;;;;;;;;;46.25;37.00;;;;;14.66;48.99;101260.94;4990983;28;45503;-80
2022/05/02 08:18:40;;;;;;;;;46.25;37.50;;;;;14.74;49.29;101263.13;4995588;28;45483;-80
2022/05/02 08:21:18;;;;;;;;;44.25;38.25;;;;;14.85;49.11;101265.97;4983408;28;46438;-79
2022/05/02 08:27:27;;;;;;;;;46.25;36.50;;;;;14.99;49.09;101256.19;4983281;28;47220;-80
2022/05/02 08:30:06;;;;;;;;;42.00;37.00;;;;;15.11;48.83;101258.03;4984376;28;45366;-80
2022/05/02 08:33:01;;;;;;;;;46.25;38.00;;;;;15.09;48.56;101246.53;4990933;28;46179;-80
2022/05/02 08:35:58;;;;;;;;;46.50;38.00;;;;;15.25;48.35;101254.41;4992906;28;45940;-80
2022/05/02 08:38:26;;;;;;;;;47.25;39.75;;;;;15.29;48.29;101248.72;4979947;28;45339;-80
2022/05/02 08:41:24;;;;;;;;;45.25;36.00;;;;;15.35;48.48;101244.78;4996101;28;45371;-80
2022/05/02 08:44:11;;;;;;;;;45.25;39.00;;;;;15.42;47.77;101247.91;4996520;28;45482;-81
2022/05/02 08:47:01;;;;;;;;;45.50;38.75;;;;;15.52;48.07;101246.31;4996426;28;45505;-80
2022/05/02 08:49:45;;;;;;;;;49.50;39.50;;;;;15.53;48.06;101250.72;4995195;28;45428;-80
2022/05/02 08:52:10;;;;;;;;;47.25;40.75;;;;;15.58;47.97;101243.19;5010517;28;45539;-80
2022/05/02 08:54:53;;;;;;;;;44.00;37.00;;;;;15.69;48.04;101247.84;4996101;28;46579;-81
2022/05/02 08:57:24;;;;;;;;;46.50;38.50;;;;;15.80;47.78;101242.59;4995343;28;45537;-80
2022/05/02 09:00:22;;;;;;;;;47.50;39.00;;;;;15.77;47.65;101234.75;4991963;28;46477;-81
2022/05/02 09:03:23;;;;;;;;;49.75;40.00;;;;;15.95;47.23;101251.41;4991881;28;45539;-80
2022/05/02 09:06:10;;;;;;;;;46.25;39.00;;;;;15.95;47.20;101257.63;4992267;28;45442;-81
2022/05/02 09:08:51;;;;;;;;;45.50;37.75;;;;;15.87;47.76;101234.97;4996072;28;45341;-81
2022/05/02 09:11:47;;;;;;;;;46.75;39.00;;;;;16.09;46.63;101245.03;5000785;28;45517;-81
2022/05/02 09:14:27;;;;;;;;;44.25;37.75;;;;;16.03;46.85;101226.69;4992814;28;45397;-81
2022/05/02 09:17:07;;;;;;;;;43.75;38.00;;;;;16.28;46.88;101247.28;4994422;28;51245;-80
2022/05/02 09:19:53;;;;;;;;;46.25;39.00;;;;;16.34;46.59;101247.69;4987658;28;45593;-87
2022/05/02 09:22:44;;;;;;;;;45.00;37.00;;;;;16.43;46.35;101246.19;5007410;28;45416;-81
2022/05/02 09:25:10;;;;;;;;;42.50;37.00;;;;;16.28;46.10;101205.13;5006609;28;45483;-83
2022/05/02 09:28:02;;;;;;;;;37.00;33.50;;;;;16.56;46.25;101240.75;5007869;28;46175;-83
2022/05/02 09:31:08;;;;;;;;;43.50;34.75;;;;;16.71;46.36;101236.06;4992412;28;45508;-82
2022/05/02 09:33:49;;;;;;;;;45.50;38.00;;;;;16.87;45.89;101244.75;5008698;28;45464;-79
2022/05/02 09:36:43;;;;;;;;;47.50;39.50;;;;;16.65;45.86;101196.22;4979704;28;45480;-83
2022/05/02 09:39:19;;;;;;;;;45.50;37.50;;;;;16.94;45.78;101229.88;4982238;28;46153;-81
2022/05/02 09:42:00;;;;;;;;;41.25;35.50;;;;;17.06;45.70;101238.88;4995016;28;45556;-81
2022/05/02 09:51:05;;;;;;;;;44.75;37.25;;;;;17.43;45.02;101226.13;4980625;28;45589;-79
2022/05/02 09:53:59;;;;;;;;;40.50;36.00;;;;;17.53;44.65;101233.50;4994629;28;45578;-79
2022/05/02 09:56:39;;;;;;;;;39.75;35.75;;;;;17.50;44.61;101213.06;4994477;28;45389;-85
2022/05/02 09:59:24;;;;;;;;;36.25;35.00;;;;;17.45;44.63;101189.19;4995406;28;45460;-83
2022/05/02 10:02:18;;;;;;;;;38.25;33.50;;;;;17.74;44.49;101202.19;4994148;28;47042;-83
2022/05/02 10:04:54;;;;;;;;;40.25;35.50;;;;;17.78;43.98;101214.44;4994560;28;45470;-83
2022/05/02 10:07:23;;;;;;;;;38.50;34.50;;;;;17.96;43.79;101219.38;4994958;28;45567;-83
2022/05/02 10:09:49;;;;;;;;;32.00;29.00;;;;;18.06;43.86;101225.75;4994123;28;45551;-83
2022/05/02 10:12:26;;;;;;;;;34.25;33.75;;;;;18.07;43.78;101222.94;4994687;28;45458;-84
2022/05/02 10:15:10;;;;;;;;;33.50;28.75;;;;;18.09;43.68;101212.91;4989576;28;45515;-83
2022/05/02 10:17:44;;;;;;;;;36.50;34.00;;;;;18.18;43.33;101211.28;4994745;28;45384;-83
2022/05/02 10:20:15;;;;;;;;;36.50;33.50;;;;;18.26;43.72;101216.06;5010091;28;45834;-83
2022/05/02 10:22:54;;;;;;;;;32.25;31.25;;;;;18.41;43.62;101222.06;4993615;28;47482;-83
2022/05/02 10:26:00;;;;;;;;;33.50;30.75;;;;;18.37;43.23;101204.41;4994720;28;45525;-83
2022/05/02 10:28:45;;;;;;;;;38.00;34.75;;;;;18.45;43.36;101201.97;4917804;28;45348;-84
2022/05/02 10:31:17;;;;;;;;;30.75;29.25;;;;;18.52;43.24;101211.25;4920699;28;45767;-84
2022/05/02 10:33:51;;;;;;;;;32.50;30.75;;;;;18.51;43.24;101182.56;4914420;28;48337;-83
2022/05/02 10:36:19;;;;;;;;;35.25;31.75;;;;;18.81;42.92;101205.28;4932795;28;45489;-83
2022/05/02 10:38:54;;;;;;;;;34.00;30.25;;;;;18.70;42.60;101179.19;4920958;28;45363;-85
2022/05/02 10:41:36;;;;;;;;;29.00;26.75;;;;;18.97;42.60;101203.03;4924581;28;45303;-84
2022/05/02 10:44:04;;;;;;;;;31.25;26.75;;;;;18.94;42.67;101169.06;4918393;28;47596;-87
2022/05/02 10:46:31;;;;;;;;;30.25;26.00;;;;;19.26;43.27;101199.69;4928065;28;46824;-85
2022/05/02 10:49:27;;;;;;;;;30.75;28.50;;;;;19.32;43.11;101181.13;4925247;28;45625;-85
2022/05/02 10:52:37;;;;;;;;;32.50;29.00;;;;;19.44;43.27;101202.69;4912411;28;45433;-86
2022/05/02 10:55:07;;;;;;;;;29.00;28.25;;;;;19.40;42.74;101174.22;4931044;28;46646;-87
2022/05/02 10:57:39;;;;;;;;;31.25;27.00;;;;;19.53;42.33;101188.34;4926023;28;45557;-86
2022/05/02 11:00:09;;;;;;;;;25.25;22.75;;;;;19.59;42.65;101183.28;4923118;28;45380;-85
2022/05/02 11:02:56;;;;;;;;;27.00;22.50;;;;;19.54;42.28;101182.84;4933418;28;45400;-86
2022/05/02 11:05:45;;;;;;;;;29.50;26.25;;;;;19.32;42.40;101170.34;4964498;28;46078;-86
2022/05/02 11:08:26;;;;;;;;;27.75;27.75;;;;;19.30;42.12;101188.50;4993657;28;45484;-88
2022/05/02 11:11:04;;;;;;;;;26.00;26.00;;;;;18.61;42.34;101075.63;4993173;28;45543;-87
2022/05/02 11:13:51;;;;;;;;;29.50;26.25;;;;;19.35;42.27;101175.47;4994294;28;45440;-86
2022/05/02 11:16:46;;;;;;;;;29.25;27.75;;;;;19.12;42.54;101134.28;4991604;28;48211;-86
2022/05/02 11:22:28;;;;;;;;;20.75;20.75;;;;;19.20;42.41;101174.09;4982790;28;45442;-88
2022/05/02 11:25:19;;;;;;;;;29.75;25.50;;;;;19.16;42.48;101154.59;4986877;28;45687;-87
2022/05/02 11:28:42;;;;;;;;;25.25;23.75;;;;;19.41;42.05;101167.81;4991743;28;45647;-88
2022/05/02 11:31:19;;;;;;;;;22.50;21.25;;;;;19.33;42.11;101166.66;4935201;28;45471;-89
2022/05/02 11:34:07;;;;;;;;;25.75;23.50;;;;;19.22;42.17;101153.25;4949718;28;45485;-89
2022/05/02 11:36:42;;;;;;;;;26.75;24.00;;;;;19.28;42.10;101163.50;4952393;28;45449;-88
2022/05/02 11:39:13;;;;;;;;;21.25;21.25;;;;;19.40;42.29;101163.44;4947493;28;46998;-88
2022/05/02 11:41:43;;;;;;;;;28.50;24.25;;;;;19.27;42.01;101142.03;4951412;28;45446;-87
2022/05/02 11:44:11;;;;;;;;;26.75;22.50;;;;;19.35;41.84;101139.53;4942195;28;45729;-87
2022/05/02 11:47:05;;;;;;;;;28.25;23.50;;;;;19.46;42.12;101157.47;4944853;28;45621;-89
2022/05/02 11:49:33;;;;;;;;;24.25;23.25;;;;;19.46;42.18;101157.47;4929078;28;47341;-87
2022/05/02 11:52:01;;;;;;;;;25.50;24.00;;;;;19.34;42.11;101133.28;4946154;28;45618;-87
2022/05/02 11:54:27;;;;;;;;;22.75;22.75;;;;;19.54;41.92;101152.28;4946410;28;45436;-87
2022/05/02 11:57:14;;;;;;;;;21.50;20.00;;;;;19.54;41.56;101149.56;4930567;28;45384;-88
2022/05/02 11:59:51;;;;;;;;;21.50;20.00;;;;;19.55;41.82;101160.25;4932956;28;47409;-88